createdAt,value
2022-11-29T00:00:47.217Z,101423.50
2022-11-29T00:03:14.680Z,101426.13
2022-11-29T00:05:41.231Z,101418.31
2022-11-29T00:08:07.787Z,101421.78
2022-11-29T00:10:37.986Z,101419.19
2022-11-29T00:13:04.595Z,101424.38
2022-11-29T00:15:34.845Z,101418.31
2022-11-29T00:18:01.206Z,101419.19
2022-11-29T00:20:27.889Z,101419.19
2022-11-29T00:22:54.344Z,101422.66
2022-11-29T00:25:20.669Z,101422.66
2022-11-29T00:27:47.150Z,101419.19
2022-11-29T00:30:14.101Z,101419.19
2022-11-29T00:32:40.467Z,101419.19
2022-11-29T00:35:09.829Z,101417.44
2022-11-29T00:37:36.553Z,101420.06
2022-11-29T00:40:04.433Z,101411.41
2022-11-29T00:42:30.838Z,101420.91
2022-11-29T00:44:57.280Z,101419.19
2022-11-29T00:47:23.810Z,101420.03
2022-11-29T00:49:50.215Z,101420.06
2022-11-29T00:52:17.631Z,101414.84
2022-11-29T00:54:44.278Z,101414.84
2022-11-29T00:57:10.821Z,101417.44
2022-11-29T00:59:37.220Z,101415.72
2022-11-29T01:02:03.608Z,101414.88
2022-11-29T01:04:30.073Z,101415.75
2022-11-29T01:06:56.521Z,101417.47
2022-11-29T01:09:22.870Z,101420.94
2022-11-29T01:11:50.208Z,101422.69
2022-11-29T01:14:16.564Z,101421.81
2022-11-29T01:16:43.042Z,101423.53
2022-11-29T01:19:09.453Z,101419.22
2022-11-29T01:21:35.958Z,101420.09
2022-11-29T01:24:02.406Z,101423.53
2022-11-29T01:26:30.757Z,101422.69
2022-11-29T01:28:58.770Z,101421.81
2022-11-29T01:31:28.190Z,101420.97
2022-11-29T01:33:56.505Z,101426.16
2022-11-29T01:36:23.914Z,101423.56
2022-11-29T01:38:50.713Z,101424.44
2022-11-29T01:41:23.505Z,101427.00
2022-11-29T01:44:04.665Z,101430.50
2022-11-29T01:46:40.161Z,101429.63
2022-11-29T01:49:11.667Z,101428.78
2022-11-29T01:51:41.596Z,101436.59
2022-11-29T01:54:10.683Z,101435.72
2022-11-29T01:56:38.458Z,101431.38
2022-11-29T01:59:11.990Z,101434.84
2022-11-29T02:01:38.575Z,101430.50
2022-11-29T02:04:05.998Z,101436.56
2022-11-29T02:06:33.224Z,101435.69
2022-11-29T02:08:59.729Z,101434.84
2022-11-29T02:12:03.767Z,101427.91
2022-11-29T02:14:40.114Z,101440.06
2022-11-29T02:17:34.538Z,101433.97
2022-11-29T02:20:46.068Z,101441.81
2022-11-29T02:23:31.562Z,101434.84
2022-11-29T02:26:08.887Z,101436.59
2022-11-29T02:29:21.446Z,101445.28
2022-11-29T02:32:26.090Z,101440.06
2022-11-29T02:35:10.973Z,101446.13
2022-11-29T02:38:02.019Z,101447.03
2022-11-29T02:40:34.700Z,101450.47
2022-11-29T02:43:18.457Z,101449.63
2022-11-29T02:46:09.724Z,101447.00
2022-11-29T02:49:07.523Z,101447.03
2022-11-29T02:51:49.600Z,101452.22
2022-11-29T02:54:26.282Z,101455.69
2022-11-29T02:57:21.568Z,101457.44
2022-11-29T03:00:02.159Z,101460.03
2022-11-29T03:03:10.141Z,101459.16
2022-11-29T03:05:58.959Z,101454.81
2022-11-29T03:08:43.966Z,101460.03
2022-11-29T03:11:23.555Z,101468.69
2022-11-29T03:14:08.794Z,101463.47
2022-11-29T03:17:13.612Z,101466.09
2022-11-29T03:19:48.789Z,101473.03
2022-11-29T03:22:24.725Z,101474.78
2022-11-29T03:24:58.495Z,101470.44
2022-11-29T03:27:35.117Z,101473.91
2022-11-29T03:30:06.398Z,101482.56
2022-11-29T03:32:52.358Z,101485.16
2022-11-29T03:35:42.423Z,101481.69
2022-11-29T03:38:44.949Z,101485.16
2022-11-29T03:41:22.937Z,101489.50
2022-11-29T03:43:59.764Z,101487.75
2022-11-29T03:46:38.077Z,101489.47
2022-11-29T03:49:16.805Z,101486.88
2022-11-29T03:52:00.942Z,101486.03
2022-11-29T03:54:37.797Z,101493.81
2022-11-29T03:57:04.765Z,101485.16
2022-11-29T03:59:59.964Z,101497.31
2022-11-29T04:03:12.423Z,101492.09
2022-11-29T04:05:53.571Z,101495.56
2022-11-29T04:08:40.571Z,101495.56
2022-11-29T04:11:15.927Z,101494.69
2022-11-29T04:13:59.763Z,101502.47
2022-11-29T04:16:40.501Z,101499.03
2022-11-29T04:19:28.944Z,101500.75
2022-11-29T04:22:25.967Z,101509.44
2022-11-29T04:25:13.337Z,101512.91
2022-11-29T04:28:02.879Z,101517.25
2022-11-29T04:30:42.407Z,101522.44
2022-11-29T04:33:36.331Z,101531.09
2022-11-29T04:37:01.200Z,101536.31
2022-11-29T04:40:04.967Z,101539.78
2022-11-29T04:43:00.078Z,101530.25
2022-11-29T04:45:58.026Z,101542.38
2022-11-29T04:48:51.594Z,101542.38
2022-11-29T04:51:41.947Z,101544.13
2022-11-29T04:54:23.240Z,101551.03
2022-11-29T04:57:20.897Z,101551.03
2022-11-29T05:00:09.707Z,101553.66
2022-11-29T05:02:48.672Z,101549.31
2022-11-29T05:05:42.106Z,101557.13
2022-11-29T05:08:42.577Z,101557.97
2022-11-29T05:11:37.881Z,101554.50
2022-11-29T05:14:28.315Z,101558.88
2022-11-29T05:17:19.410Z,101557.97
2022-11-29T05:20:10.493Z,101563.19
2022-11-29T05:22:54.174Z,101564.94
2022-11-29T05:25:45.195Z,101559.72
2022-11-29T05:28:38.042Z,101562.31
2022-11-29T05:31:58.617Z,101572.72
2022-11-29T05:34:37.132Z,101573.59
2022-11-29T05:37:45.807Z,101577.06
2022-11-29T05:40:24.188Z,101582.25
2022-11-29T05:43:16.933Z,101581.38
2022-11-29T05:45:49.532Z,101584.00
2022-11-29T05:48:28.469Z,101584.88
2022-11-29T05:51:13.139Z,101591.78
2022-11-29T05:54:05.055Z,101596.13
2022-11-29T05:56:50.899Z,101600.47
2022-11-29T05:59:23.279Z,101595.25
2022-11-29T06:02:06.703Z,101590.06
2022-11-29T06:04:49.701Z,101601.31
2022-11-29T06:07:24.629Z,101600.47
2022-11-29T06:10:01.489Z,101605.66
2022-11-29T06:12:34.533Z,101601.34
2022-11-29T06:15:24.169Z,101614.31
2022-11-29T06:18:41.583Z,101613.47
2022-11-29T06:21:27.466Z,101608.28
2022-11-29T06:24:18.584Z,101620.38
2022-11-29T06:27:15.051Z,101620.38
2022-11-29T06:29:54.254Z,101627.31
2022-11-29T06:32:40.724Z,101632.53
2022-11-29T06:35:09.796Z,101628.19
2022-11-29T06:37:47.152Z,101646.38
2022-11-29T06:40:15.846Z,101646.38
2022-11-29T06:42:42.501Z,101651.63
2022-11-29T06:45:13.666Z,101653.34
2022-11-29T06:47:49.383Z,101659.41
2022-11-29T06:50:36.987Z,101654.22
2022-11-29T06:53:38.524Z,101653.31
2022-11-29T06:56:21.217Z,101651.59
2022-11-29T06:59:36.301Z,101654.22
2022-11-29T07:02:12.517Z,101661.13
2022-11-29T07:04:56.366Z,101664.59
2022-11-29T07:07:23.755Z,101664.59
2022-11-29T07:09:53.853Z,101661.13
2022-11-29T07:12:20.752Z,101669.78
2022-11-29T07:14:47.551Z,101666.31
2022-11-29T07:17:34.183Z,101672.38
2022-11-29T07:20:10.259Z,101680.22
2022-11-29T07:22:45.279Z,101681.94
2022-11-29T07:25:33.907Z,101681.09
2022-11-29T07:28:13.503Z,101687.16
2022-11-29T07:30:50.175Z,101684.53
2022-11-29T07:33:29.078Z,101685.41
2022-11-29T07:36:37.486Z,101691.47
2022-11-29T07:39:21.191Z,101689.75
2022-11-29T07:41:59.437Z,101691.50
2022-11-29T07:44:50.428Z,101697.53
2022-11-29T07:47:16.774Z,101698.41
2022-11-29T07:49:43.260Z,101705.34
2022-11-29T07:52:14.903Z,101695.81
2022-11-29T07:54:41.578Z,101688.88
2022-11-29T07:57:08.142Z,101695.81
2022-11-29T07:59:34.521Z,101701.88
2022-11-29T08:02:01.053Z,101705.34
2022-11-29T08:04:27.455Z,101703.59
2022-11-29T08:06:53.991Z,101705.38
2022-11-29T08:09:20.343Z,101714.03
2022-11-29T08:11:48.787Z,101716.63
2022-11-29T08:14:15.216Z,101716.63
2022-11-29T08:16:41.670Z,101718.38
2022-11-29T08:19:08.099Z,101712.31
2022-11-29T08:21:34.509Z,101711.44
2022-11-29T08:24:02.090Z,101703.63
2022-11-29T08:26:31.613Z,101707.09
2022-11-29T08:28:58.471Z,101709.69
2022-11-29T08:31:24.932Z,101709.69
2022-11-29T08:33:51.399Z,101711.44
2022-11-29T08:36:20.186Z,101714.06
2022-11-29T08:38:47.469Z,101721.84
2022-11-29T08:41:16.412Z,101721.00
2022-11-29T08:43:43.581Z,101724.44
2022-11-29T08:46:16.691Z,101716.66
2022-11-29T08:48:44.869Z,101727.91
2022-11-29T08:51:11.324Z,101723.59
2022-11-29T08:53:44.705Z,101730.50
2022-11-29T08:56:53.428Z,101732.25
2022-11-29T08:59:00.613Z,101733.13
2022-11-29T09:01:29.365Z,101739.19
2022-11-29T09:04:06.986Z,101738.31
2022-11-29T09:06:44.387Z,101734.84
2022-11-29T09:09:10.815Z,101742.66
2022-11-29T09:11:37.164Z,101739.19
2022-11-29T09:14:06.654Z,101740.06
2022-11-29T09:16:36.381Z,101743.53
2022-11-29T09:19:04.311Z,101741.78
2022-11-29T09:21:33.118Z,101747.00
2022-11-29T09:24:01.527Z,101754.78
2022-11-29T09:26:33.359Z,101750.47
2022-11-29T09:29:01.379Z,101747.84
2022-11-29T09:31:29.637Z,101757.41
2022-11-29T09:33:56.506Z,101766.94
2022-11-29T09:36:28.137Z,101766.09
2022-11-29T09:38:55.704Z,101767.81
2022-11-29T09:41:45.573Z,101770.41
2022-11-29T09:44:46.169Z,101774.75
2022-11-29T09:47:31.180Z,101775.59
2022-11-29T09:50:27.999Z,101772.13
2022-11-29T09:53:15.500Z,101772.13
2022-11-29T09:55:51.549Z,101768.69
2022-11-29T09:58:26.105Z,101773.03
2022-11-29T10:00:58.176Z,101773.00
2022-11-29T10:03:46.951Z,101774.78
2022-11-29T10:06:23.153Z,101768.69
2022-11-29T10:09:03.814Z,101773.03
2022-11-29T10:11:36.942Z,101777.38
2022-11-29T10:14:15.192Z,101776.50
2022-11-29T10:16:52.527Z,101775.63
2022-11-29T10:19:29.950Z,101776.53
2022-11-29T10:22:04.834Z,101782.59
2022-11-29T10:24:32.751Z,101784.34
2022-11-29T10:26:59.294Z,101785.19
2022-11-29T10:29:25.919Z,101788.63
2022-11-29T10:31:56.548Z,101780.84
2022-11-29T10:34:26.168Z,101783.44
2022-11-29T10:37:04.382Z,101788.66
2022-11-29T10:39:40.063Z,101791.25
2022-11-29T10:42:35.338Z,101788.63
2022-11-29T10:45:02.691Z,101794.75
2022-11-29T10:47:29.291Z,101787.81
2022-11-29T10:49:56.734Z,101794.75
2022-11-29T10:52:23.839Z,101793.00
2022-11-29T10:54:55.636Z,101786.06
2022-11-29T10:57:22.799Z,101786.94
2022-11-29T11:00:04.382Z,101789.53
2022-11-29T11:02:31.486Z,101786.06
2022-11-29T11:04:59.241Z,101789.50
2022-11-29T11:07:31.180Z,101786.94
2022-11-29T11:09:59.134Z,101787.81
2022-11-29T11:12:32.173Z,101786.94
2022-11-29T11:15:16.259Z,101779.13
2022-11-29T11:17:56.498Z,101783.47
2022-11-29T11:20:24.222Z,101776.53
2022-11-29T11:23:06.554Z,101787.81
2022-11-29T11:25:40.468Z,101778.25
2022-11-29T11:28:20.303Z,101783.47
2022-11-29T11:30:56.978Z,101786.06
2022-11-29T11:33:49.699Z,101780.88
2022-11-29T11:36:27.384Z,101783.47
2022-11-29T11:38:53.687Z,101791.28
2022-11-29T11:41:46.208Z,101785.19
2022-11-29T11:44:49.713Z,101795.59
2022-11-29T11:47:24.837Z,101792.13
2022-11-29T11:50:00.214Z,101793.91
2022-11-29T11:52:32.951Z,101801.69
2022-11-29T11:55:07.081Z,101800.81
2022-11-29T11:57:34.040Z,101801.69
2022-11-29T12:00:06.799Z,101799.09
2022-11-29T12:02:40.535Z,101803.44
2022-11-29T12:05:19.460Z,101808.63
2022-11-29T12:08:08.539Z,101801.69
2022-11-29T12:10:37.510Z,101805.16
2022-11-29T12:13:04.726Z,101809.50
2022-11-29T12:15:38.065Z,101810.38
2022-11-29T12:18:16.654Z,101813.84
2022-11-29T12:21:07.097Z,101807.78
2022-11-29T12:23:46.780Z,101807.78
2022-11-29T12:26:56.563Z,101812.13
2022-11-29T12:29:22.211Z,101814.72
2022-11-29T12:31:55.176Z,101811.25
2022-11-29T12:34:53.429Z,101817.31
2022-11-29T12:37:34.998Z,101814.72
2022-11-29T12:40:38.677Z,101826.00
2022-11-29T12:43:18.041Z,101822.53
2022-11-29T12:46:03.539Z,101821.69
2022-11-29T12:48:47.318Z,101830.31
2022-11-29T12:51:43.320Z,101834.66
2022-11-29T12:54:24.775Z,101834.66
2022-11-29T12:57:12.077Z,101838.16
2022-11-29T12:59:55.593Z,101832.94
2022-11-29T13:02:40.685Z,101829.47
2022-11-29T13:05:38.308Z,101839.00
2022-11-29T13:08:25.203Z,101831.19
2022-11-29T13:11:08.444Z,101843.38
2022-11-29T13:13:48.399Z,101835.56
2022-11-29T13:16:31.793Z,101835.56
2022-11-29T13:19:23.947Z,101838.16
2022-11-29T13:22:02.033Z,101831.22
2022-11-29T13:24:42.558Z,101843.34
2022-11-29T13:27:21.436Z,101843.38
2022-11-29T13:29:48.621Z,101847.69
2022-11-29T13:32:31.393Z,101849.41
2022-11-29T13:35:05.010Z,101847.69
2022-11-29T13:37:44.786Z,101853.78
2022-11-29T13:40:32.714Z,101855.47
2022-11-29T13:43:30.450Z,101845.06
2022-11-29T13:46:24.684Z,101860.69
2022-11-29T13:48:53.532Z,101858.97
2022-11-29T13:51:28.041Z,101860.69
2022-11-29T13:53:56.891Z,101856.34
2022-11-29T13:56:48.135Z,101859.81
2022-11-29T13:59:31.523Z,101857.25
2022-11-29T14:01:59.192Z,101859.84
2022-11-29T14:04:45.606Z,101855.50
2022-11-29T14:07:18.435Z,101861.59
2022-11-29T14:09:59.298Z,101862.44
2022-11-29T14:12:35.923Z,101866.75
2022-11-29T14:15:32.547Z,101865.03
2022-11-29T14:18:02.577Z,101865.94
2022-11-29T14:20:28.847Z,101870.25
2022-11-29T14:23:07.734Z,101871.97
2022-11-29T14:25:53.293Z,101871.97
2022-11-29T14:28:22.509Z,101879.78
2022-11-29T14:30:54.213Z,101875.47
2022-11-29T14:33:39.470Z,101874.59
2022-11-29T14:36:14.914Z,101878.06
2022-11-29T14:39:08.383Z,101884.16
2022-11-29T14:42:04.082Z,101882.38
2022-11-29T14:44:33.008Z,101878.91
2022-11-29T14:47:02.609Z,101880.66
2022-11-29T14:49:31.786Z,101885.00
2022-11-29T14:52:08.653Z,101887.59
2022-11-29T14:54:53.856Z,101886.75
2022-11-29T14:57:51.367Z,101881.53
2022-11-29T15:00:21.029Z,101887.59
2022-11-29T15:03:03.297Z,101885.00
2022-11-29T15:05:35.802Z,101884.13
2022-11-29T15:08:10.440Z,101889.34
2022-11-29T15:10:42.263Z,101888.47
2022-11-29T15:13:15.207Z,101892.81
2022-11-29T15:16:12.773Z,101893.66
2022-11-29T15:19:07.161Z,101892.81
2022-11-29T15:21:33.633Z,101888.47
2022-11-29T15:24:10.866Z,101889.34
2022-11-29T15:26:37.367Z,101897.13
2022-11-29T15:29:18.180Z,101900.63
2022-11-29T15:31:53.993Z,101899.75
2022-11-29T15:34:31.535Z,101903.22
2022-11-29T15:36:59.871Z,101907.56
2022-11-29T15:39:34.642Z,101899.75
2022-11-29T15:42:15.675Z,101910.16
2022-11-29T15:44:46.911Z,101914.50
2022-11-29T15:47:24.208Z,101910.16
2022-11-29T15:49:51.720Z,101916.22
2022-11-29T15:52:31.539Z,101927.50
2022-11-29T15:55:04.591Z,101920.56
2022-11-29T15:57:38.415Z,101924.03
2022-11-29T16:00:07.511Z,101927.50
2022-11-29T16:02:38.184Z,101920.56
2022-11-29T16:05:20.231Z,101931.84
2022-11-29T16:07:49.044Z,101931.84
2022-11-29T16:10:22.959Z,101933.59
2022-11-29T16:13:00.014Z,101938.78
2022-11-29T16:15:28.597Z,101939.66
2022-11-29T16:17:55.451Z,101942.25
2022-11-29T16:20:24.256Z,101939.66
2022-11-29T16:23:12.087Z,101942.25
2022-11-29T16:26:13.156Z,101941.41
2022-11-29T16:28:46.124Z,101951.81
2022-11-29T16:31:18.162Z,101947.47
2022-11-29T16:33:46.885Z,101953.53
2022-11-29T16:36:21.511Z,101951.81
2022-11-29T16:38:52.543Z,101957.88
2022-11-29T16:41:21.468Z,101958.75
2022-11-29T16:43:58.484Z,101950.94
2022-11-29T16:46:27.802Z,101953.53
2022-11-29T16:48:55.895Z,101955.28
2022-11-29T16:51:48.330Z,101962.22
2022-11-29T16:54:27.365Z,101961.34
2022-11-29T16:56:56.339Z,101964.81
2022-11-29T16:59:27.894Z,101970.91
2022-11-29T17:01:56.734Z,101975.25
2022-11-29T17:04:24.989Z,101980.44
2022-11-29T17:06:55.916Z,101979.56
2022-11-29T17:09:26.228Z,101978.72
2022-11-29T17:11:53.620Z,101976.09
2022-11-29T17:14:19.988Z,101985.69
2022-11-29T17:16:49.198Z,101983.94
2022-11-29T17:19:16.123Z,101979.59
2022-11-29T17:21:42.565Z,101984.81
2022-11-29T17:24:15.583Z,101983.94
2022-11-29T17:26:43.255Z,101985.69
2022-11-29T17:29:14.449Z,101987.41
2022-11-29T17:31:43.533Z,101994.38
2022-11-29T17:34:10.226Z,101997.81
2022-11-29T17:36:36.617Z,102002.16
2022-11-29T17:39:04.943Z,102011.72
2022-11-29T17:41:32.605Z,102008.25
2022-11-29T17:43:59.560Z,102008.25
2022-11-29T17:46:28.945Z,102007.38
2022-11-29T17:48:56.158Z,102016.03
2022-11-29T17:54:11.000Z,102016.91
2022-11-29T17:56:37.347Z,102017.75
2022-11-29T17:59:04.367Z,102016.03
2022-11-29T18:01:33.445Z,102014.28
2022-11-29T18:04:01.533Z,102026.44
2022-11-29T18:06:31.074Z,102014.28
2022-11-29T18:08:59.417Z,102016.03
2022-11-29T18:11:41.409Z,102022.97
2022-11-29T18:14:12.970Z,102017.75
2022-11-29T18:16:39.485Z,102025.56
2022-11-29T18:19:09.131Z,102024.66
2022-11-29T18:21:36.303Z,102033.34
2022-11-29T18:24:04.139Z,102040.28
2022-11-29T18:26:32.927Z,102038.59
2022-11-29T18:29:00.075Z,102046.41
2022-11-29T18:31:30.822Z,102043.78
2022-11-29T18:33:59.620Z,102049.00
2022-11-29T18:36:31.219Z,102059.41
2022-11-29T18:39:00.346Z,102061.16
2022-11-29T18:41:29.239Z,102065.50
2022-11-29T18:43:58.847Z,102062.88
2022-11-29T18:46:25.940Z,102066.34
2022-11-29T18:48:52.821Z,102057.69
2022-11-29T18:51:20.615Z,102062.88
2022-11-29T18:53:47.172Z,102061.16
2022-11-29T18:56:16.633Z,102062.00
2022-11-29T18:58:44.844Z,102066.34
2022-11-29T19:01:14.415Z,102055.06
2022-11-29T19:03:47.226Z,102057.69
2022-11-29T19:06:16.224Z,102064.63
2022-11-29T19:08:43.121Z,102061.16
2022-11-29T19:11:14.594Z,102054.22
2022-11-29T19:13:41.457Z,102057.69
2022-11-29T19:16:13.034Z,102062.88
2022-11-29T19:18:39.749Z,102059.41
2022-11-29T19:21:14.748Z,102060.28
2022-11-29T19:23:44.188Z,102064.63
2022-11-29T19:26:12.967Z,102060.28
2022-11-29T19:28:43.947Z,102057.69
2022-11-29T19:31:12.061Z,102062.88
2022-11-29T19:33:40.131Z,102060.28
2022-11-29T19:36:12.128Z,102058.53
2022-11-29T19:38:39.553Z,102062.88
2022-11-29T19:41:23.721Z,102064.63
2022-11-29T19:43:50.473Z,102058.53
2022-11-29T19:46:25.314Z,102061.16
2022-11-29T19:48:53.530Z,102068.97
2022-11-29T19:51:20.847Z,102063.75
2022-11-29T19:53:51.226Z,102065.50
2022-11-29T19:56:17.726Z,102067.22
2022-11-29T19:58:44.611Z,102065.47
2022-11-29T20:01:19.810Z,102068.91
2022-11-29T20:03:46.302Z,102068.91
2022-11-29T20:06:13.589Z,102074.13
2022-11-29T20:08:40.923Z,102070.69
2022-11-29T20:11:11.925Z,102073.28
2022-11-29T20:13:39.735Z,102071.56
2022-11-29T20:16:09.859Z,102070.69
2022-11-29T20:18:39.759Z,102075.91
2022-11-29T20:21:22.276Z,102081.97
2022-11-29T20:23:49.231Z,102080.25
2022-11-29T20:26:17.986Z,102090.66
2022-11-29T20:28:45.001Z,102076.78
2022-11-29T20:31:14.897Z,102080.25
2022-11-29T20:33:45.027Z,102081.13
2022-11-29T20:37:06.622Z,102081.09
2022-11-29T20:39:54.013Z,102081.97
2022-11-29T20:42:29.396Z,102089.78
2022-11-29T20:45:01.550Z,102086.31
2022-11-29T20:47:57.051Z,102088.03
2022-11-29T20:50:26.803Z,102100.19
2022-11-29T20:53:29.436Z,102098.47
2022-11-29T20:55:56.843Z,102097.59
2022-11-29T20:58:23.531Z,102108.00
2022-11-29T21:00:49.977Z,102095.84
2022-11-29T21:03:17.961Z,102101.94
2022-11-29T21:05:44.824Z,102101.06
2022-11-29T21:08:12.143Z,102111.47
2022-11-29T21:10:39.408Z,102102.81
2022-11-29T21:13:06.148Z,102107.13
2022-11-29T21:15:32.838Z,102106.28
2022-11-29T21:17:59.902Z,102106.28
2022-11-29T21:20:26.905Z,102095.00
2022-11-29T21:23:21.429Z,102104.53
2022-11-29T21:25:59.089Z,102100.16
2022-11-29T21:28:33.106Z,102101.94
2022-11-29T21:30:59.824Z,102101.06
2022-11-29T21:33:26.463Z,102097.56
2022-11-29T21:35:55.459Z,102100.16
2022-11-29T21:38:24.363Z,102102.75
2022-11-29T21:40:50.958Z,102101.88
2022-11-29T21:43:17.319Z,102108.81
2022-11-29T21:45:47.305Z,102107.09
2022-11-29T21:48:32.627Z,102107.09
2022-11-29T21:50:58.980Z,102105.34
2022-11-29T21:53:26.143Z,102109.69
2022-11-29T21:55:59.907Z,102108.81
2022-11-29T21:58:28.329Z,102114.00
2022-11-29T22:00:54.735Z,102121.78
2022-11-29T22:03:21.068Z,102113.13
2022-11-29T22:05:47.602Z,102118.31
2022-11-29T22:08:13.971Z,102114.84
2022-11-29T22:10:41.270Z,102121.84
2022-11-29T22:13:07.634Z,102125.31
2022-11-29T22:15:35.459Z,102132.25
2022-11-29T22:18:01.798Z,102131.38
2022-11-29T22:20:28.338Z,102135.72
2022-11-29T22:22:58.720Z,102138.34
2022-11-29T22:25:25.409Z,102136.59
2022-11-29T22:27:51.794Z,102133.13
2022-11-29T22:30:19.378Z,102134.00
2022-11-29T22:32:45.959Z,102133.13
2022-11-29T22:35:12.310Z,102127.91
2022-11-29T22:37:38.745Z,102133.13
2022-11-29T22:40:06.253Z,102129.66
2022-11-29T22:42:32.707Z,102135.72
2022-11-29T22:44:59.050Z,102135.72
2022-11-29T22:47:25.471Z,102131.38
2022-11-29T22:49:51.830Z,102134.00
2022-11-29T22:52:18.216Z,102124.44
2022-11-29T22:54:44.924Z,102135.72
2022-11-29T22:57:11.758Z,102132.25
2022-11-29T22:59:38.142Z,102133.97
2022-11-29T23:02:04.666Z,102139.19
2022-11-29T23:04:31.517Z,102140.06
2022-11-29T23:06:57.880Z,102147.00
2022-11-29T23:09:24.334Z,102148.72
2022-11-29T23:11:55.727Z,102145.25
2022-11-29T23:14:24.481Z,102154.81
2022-11-29T23:16:51.865Z,102156.53
2022-11-29T23:19:18.695Z,102159.16
2022-11-29T23:21:46.232Z,102149.59
2022-11-29T23:24:14.104Z,102153.94
2022-11-29T23:26:44.010Z,102150.47
2022-11-29T23:29:14.007Z,102151.34
2022-11-29T23:31:40.626Z,102153.94
2022-11-29T23:34:07.263Z,102149.59
2022-11-29T23:36:33.999Z,102147.88
2022-11-29T23:39:04.374Z,102151.34
2022-11-29T23:41:30.813Z,102151.38
2022-11-29T23:43:59.582Z,102151.38
2022-11-29T23:46:26.251Z,102154.81
2022-11-29T23:48:52.662Z,102156.56
2022-11-29T23:51:19.807Z,102156.56
2022-11-29T23:53:51.388Z,102153.09
2022-11-29T23:56:18.590Z,102152.22
2022-11-29T23:58:45.199Z,102152.22
